Time;durP1;ratioP1;P1;durP2;ratioP2;P2;SDS_P1;SDS_P2;PMS_P1;PMS_P2;Temp;Humidity;BMP_temperature;BMP_pressure;BME280_temperature;BME280_humidity;BME280_pressure;Samples;Min_cycle;Max_cycle;Signal;HPM_P1;HPM_P2
2023/03/03 00:02:21;;;;;;;40.87;24.67;;;5.70;38.70;;;;;;5012833;28;20253;-52
2023/03/03 00:04:47;;;;;;;40.63;27.73;;;5.70;38.50;;;;;;5012710;28;20178;-53
2023/03/03 00:07:20;;;;;;;51.93;28.23;;;5.70;38.50;;;;;;5012715;28;20249;-54
2023/03/03 00:09:46;;;;;;;43.72;27.83;;;5.80;38.40;;;;;;5012717;28;20201;-56
2023/03/03 00:12:28;;;;;;;59.25;32.63;;;5.80;38.40;;;;;;5012867;28;20308;-53
2023/03/03 00:14:55;;;;;;;57.80;29.58;;;5.80;38.30;;;;;;5012575;28;20206;-55
2023/03/03 00:17:29;;;;;;;55.28;30.45;;;5.90;38.60;;;;;;5012479;28;20179;-53
2023/03/03 00:19:54;;;;;;;58.25;30.85;;;5.90;38.60;;;;;;5012350;28;20680;-53
2023/03/03 00:22:36;;;;;;;57.97;29.37;;;5.90;38.60;;;;;;5012882;28;20175;-55
2023/03/03 00:25:19;;;;;;;46.75;27.27;;;5.90;38.60;;;;;;5012431;28;20539;-52
2023/03/03 00:27:46;;;;;;;50.28;30.60;;;6.00;38.50;;;;;;5012147;28;20237;-54
2023/03/03 00:30:31;;;;;;;49.67;27.92;;;5.90;38.50;;;;;;5012399;28;20198;-53
2023/03/03 00:32:57;;;;;;;44.85;27.92;;;5.90;38.60;;;;;;5012140;28;20810;-52
2023/03/03 00:35:29;;;;;;;52.00;29.13;;;6.00;38.70;;;;;;5012279;28;20214;-57
2023/03/03 00:38:00;;;;;;;52.72;27.77;;;6.00;39.20;;;;;;5012180;28;20209;-53
2023/03/03 00:40:30;;;;;;;44.97;27.25;;;6.00;39.00;;;;;;5012437;28;20536;-53
2023/03/03 00:42:59;;;;;;;50.47;29.55;;;6.00;38.90;;;;;;5012281;28;20178;-56
2023/03/03 00:45:32;;;;;;;55.70;29.48;;;6.00;38.80;;;;;;5012228;28;20185;-56
2023/03/03 00:48:01;;;;;;;54.92;28.77;;;6.00;39.00;;;;;;5012083;28;20694;-53
2023/03/03 00:50:34;;;;;;;55.20;31.48;;;5.90;39.10;;;;;;5011872;28;20683;-54
2023/03/03 00:53:12;;;;;;;52.13;28.27;;;6.00;39.10;;;;;;5012214;28;20186;-55
2023/03/03 00:55:39;;;;;;;48.15;28.63;;;6.00;39.30;;;;;;5012165;28;20210;-52
2023/03/03 00:58:05;;;;;;;48.25;28.75;;;5.90;39.20;;;;;;5012053;28;20182;-56
2023/03/03 01:00:32;;;;;;;49.45;27.33;;;5.90;39.30;;;;;;5012100;28;20208;-53
2023/03/03 01:03:02;;;;;;;42.97;26.83;;;5.90;39.30;;;;;;5012269;28;20179;-53
2023/03/03 01:05:28;;;;;;;47.53;26.70;;;5.90;39.50;;;;;;5012102;28;20733;-55
2023/03/03 01:07:54;;;;;;;44.65;26.63;;;5.90;39.60;;;;;;5011808;28;20221;-54
2023/03/03 01:10:19;;;;;;;41.60;25.60;;;5.90;39.40;;;;;;5012038;28;20229;-53
2023/03/03 01:12:45;;;;;;;47.17;26.67;;;5.90;39.60;;;;;;5012063;28;20253;-53
2023/03/03 01:15:12;;;;;;;48.70;28.40;;;5.90;39.50;;;;;;5012190;28;20285;-53
2023/03/03 01:17:38;;;;;;;47.80;26.63;;;5.90;39.60;;;;;;5012080;28;20237;-54
2023/03/03 01:20:06;;;;;;;53.80;28.95;;;5.90;39.70;;;;;;5011952;28;20221;-55
2023/03/03 01:22:32;;;;;;;47.10;28.63;;;5.90;39.60;;;;;;5012066;28;20178;-53
2023/03/03 01:24:58;;;;;;;44.07;26.90;;;5.90;39.60;;;;;;5011908;28;20175;-52
2023/03/03 01:27:24;;;;;;;50.93;28.87;;;5.90;39.70;;;;;;5011935;28;20233;-55
2023/03/03 01:29:49;;;;;;;41.60;25.07;;;5.90;39.70;;;;;;5015660;28;20248;-53
2023/03/03 01:32:15;;;;;;;45.43;26.70;;;5.90;39.80;;;;;;5015465;28;20197;-52
2023/03/03 01:34:41;;;;;;;46.40;28.10;;;5.80;39.70;;;;;;5015436;28;20457;-55
2023/03/03 01:37:07;;;;;;;45.27;26.80;;;5.80;39.60;;;;;;5015873;28;20182;-53
2023/03/03 01:39:32;;;;;;;44.77;28.07;;;5.80;39.60;;;;;;5015178;28;20210;-53
2023/03/03 01:41:58;;;;;;;49.80;27.50;;;5.80;39.70;;;;;;5015601;28;20579;-52
2023/03/03 01:44:24;;;;;;;47.40;30.23;;;5.80;39.80;;;;;;5015696;28;20183;-54
2023/03/03 01:47:06;;;;;;;51.60;31.23;;;5.80;39.90;;;;;;5015237;28;20190;-52
2023/03/03 01:49:51;;;;;;;49.75;28.05;;;5.80;40.00;;;;;;5015079;28;20213;-52
2023/03/03 01:52:34;;;;;;;48.95;28.38;;;5.70;40.50;;;;;;5015168;28;20316;-52
2023/03/03 01:55:08;;;;;;;49.22;29.42;;;5.60;41.10;;;;;;5014991;28;20321;-55
2023/03/03 01:57:39;;;;;;;47.88;28.20;;;5.50;40.80;;;;;;5015379;28;20189;-54
2023/03/03 02:00:06;;;;;;;45.03;26.15;;;5.40;40.90;;;;;;5015076;28;20286;-52
2023/03/03 02:02:34;;;;;;;41.38;27.08;;;5.40;41.90;;;;;;5014942;28;20171;-53
2023/03/03 02:05:00;;;;;;;52.58;29.15;;;5.40;41.10;;;;;;5014967;28;20578;-57
2023/03/03 02:07:28;;;;;;;53.27;30.13;;;5.30;41.40;;;;;;5014952;28;20185;-57
2023/03/03 02:10:15;;;;;;;49.60;27.42;;;5.30;41.20;;;;;;5014875;28;20599;-53
2023/03/03 02:12:41;;;;;;;59.80;29.92;;;5.30;41.30;;;;;;5014928;28;20576;-54
2023/03/03 02:15:27;;;;;;;52.60;28.33;;;5.40;41.20;;;;;;5014880;28;20285;-52
2023/03/03 02:17:55;;;;;;;52.20;28.77;;;5.30;41.80;;;;;;5014554;28;20171;-53
2023/03/03 02:20:50;;;;;;;53.63;26.27;;;5.20;41.90;;;;;;5014599;28;20206;-53
2023/03/03 02:23:31;;;;;;;54.78;27.33;;;5.00;42.40;;;;;;5014174;28;20182;-56
2023/03/03 02:25:57;;;;;;;47.15;25.85;;;4.90;42.30;;;;;;5014940;28;20213;-52
2023/03/03 02:28:26;;;;;;;43.97;26.70;;;4.90;42.30;;;;;;5014590;28;20666;-55
2023/03/03 02:30:59;;;;;;;42.65;22.67;;;4.90;42.30;;;;;;5014691;28;20202;-52
2023/03/03 02:33:26;;;;;;;56.53;28.58;;;4.80;42.80;;;;;;5014476;28;20189;-53
2023/03/03 02:35:53;;;;;;;45.92;24.67;;;4.80;43.00;;;;;;5014343;28;20207;-55
2023/03/03 02:38:57;;;;;;;49.97;24.77;;;4.80;42.50;;;;;;5014128;28;20178;-53
2023/03/03 02:41:29;;;;;;;43.90;23.45;;;4.80;42.40;;;;;;5014172;28;20166;-54
2023/03/03 02:44:03;;;;;;;45.22;23.45;;;4.80;42.70;;;;;;5014475;28;20195;-53
2023/03/03 02:46:34;;;;;;;50.08;27.20;;;4.80;42.40;;;;;;5014533;28;20508;-55
2023/03/03 02:49:01;;;;;;;44.05;25.40;;;4.80;42.50;;;;;;5013968;28;20248;-55
2023/03/03 02:51:26;;;;;;;50.28;26.27;;;4.80;42.50;;;;;;5013868;28;20190;-53
2023/03/03 02:53:52;;;;;;;47.23;24.70;;;4.80;42.30;;;;;;5013935;28;20236;-55
2023/03/03 02:56:18;;;;;;;45.20;25.83;;;4.90;42.10;;;;;;5014272;28;20422;-54
2023/03/03 02:58:44;;;;;;;51.47;24.50;;;4.90;42.10;;;;;;5013762;28;20171;-53
2023/03/03 03:01:09;;;;;;;38.77;24.40;;;5.00;42.30;;;;;;5014031;28;20177;-55
2023/03/03 03:03:35;;;;;;;47.10;22.57;;;5.00;42.00;;;;;;5013923;28;20175;-53
2023/03/03 03:06:01;;;;;;;37.70;23.47;;;5.00;42.00;;;;;;5013800;28;20666;-53
2023/03/03 03:08:27;;;;;;;38.20;21.37;;;5.00;42.40;;;;;;5013480;28;20777;-53
2023/03/03 03:10:53;;;;;;;39.87;22.07;;;4.80;43.30;;;;;;5013652;28;20193;-57
2023/03/03 03:13:18;;;;;;;44.90;25.53;;;4.70;43.20;;;;;;5013712;28;20261;-52
2023/03/03 03:15:45;;;;;;;43.13;24.17;;;4.60;43.80;;;;;;5013890;28;20472;-53
2023/03/03 03:18:11;;;;;;;44.53;24.73;;;4.50;43.60;;;;;;5013371;28;20688;-56
2023/03/03 03:20:39;;;;;;;45.00;23.95;;;4.50;43.80;;;;;;5013682;28;20253;-52
2023/03/03 03:23:05;;;;;;;39.70;24.75;;;4.40;43.40;;;;;;5013779;28;20205;-52
2023/03/03 03:25:31;;;;;;;40.45;24.50;;;4.50;43.30;;;;;;5013770;28;20293;-54
2023/03/03 03:27:56;;;;;;;40.57;23.70;;;4.60;43.20;;;;;;5013492;28;20531;-56
2023/03/03 03:30:22;;;;;;;36.80;20.57;;;4.60;43.10;;;;;;5013281;28;20268;-52
2023/03/03 03:32:48;;;;;;;35.77;22.33;;;4.60;42.80;;;;;;5013379;28;20178;-52
2023/03/03 03:35:16;;;;;;;39.90;21.57;;;4.70;42.70;;;;;;5013176;28;20202;-55
2023/03/03 03:37:42;;;;;;;37.40;22.20;;;4.70;42.50;;;;;;5013230;28;20437;-54
2023/03/03 03:40:09;;;;;;;39.72;22.33;;;4.70;42.50;;;;;;5013420;28;20198;-51
2023/03/03 03:42:35;;;;;;;37.60;20.90;;;4.80;42.30;;;;;;5013172;28;20193;-56
2023/03/03 03:45:00;;;;;;;40.10;21.60;;;4.80;42.30;;;;;;5013272;28;20651;-56
2023/03/03 03:47:26;;;;;;;32.50;19.30;;;4.80;42.40;;;;;;5013049;28;20174;-52
2023/03/03 03:49:52;;;;;;;34.00;19.83;;;4.80;42.30;;;;;;5012783;28;20275;-53
2023/03/03 03:52:17;;;;;;;38.33;21.50;;;4.80;42.20;;;;;;5012547;28;20190;-53
2023/03/03 03:54:43;;;;;;;34.67;22.03;;;4.80;42.00;;;;;;5012913;28;20199;-55
2023/03/03 03:57:09;;;;;;;37.73;19.83;;;4.80;42.30;;;;;;5013222;28;20181;-53
2023/03/03 03:59:35;;;;;;;36.50;20.20;;;4.80;42.20;;;;;;5012680;28;20245;-56
2023/03/03 04:02:00;;;;;;;35.93;21.10;;;4.80;42.70;;;;;;5012822;28;20185;-55
2023/03/03 04:04:26;;;;;;;39.73;21.80;;;4.80;42.40;;;;;;5012769;28;20170;-52
2023/03/03 04:06:52;;;;;;;40.97;21.47;;;4.70;42.80;;;;;;5013016;28;20175;-53
2023/03/03 04:09:18;;;;;;;37.70;21.07;;;4.60;42.60;;;;;;5012599;28;20686;-56
2023/03/03 04:11:44;;;;;;;32.25;19.73;;;4.60;43.20;;;;;;5012986;28;20171;-56
2023/03/03 04:14:09;;;;;;;35.23;19.20;;;4.60;42.90;;;;;;5012590;28;20185;-53
2023/03/03 04:16:35;;;;;;;29.73;18.73;;;4.60;43.00;;;;;;5012691;28;20304;-53
2023/03/03 04:19:01;;;;;;;44.50;21.77;;;4.60;42.70;;;;;;5012279;28;20670;-55
2023/03/03 04:21:27;;;;;;;36.57;20.83;;;4.70;42.90;;;;;;5012475;28;20178;-55
2023/03/03 04:23:53;;;;;;;34.63;18.70;;;4.70;42.50;;;;;;5012545;28;20173;-53
2023/03/03 04:26:18;;;;;;;32.30;18.63;;;4.70;42.40;;;;;;5012415;28;20406;-53
2023/03/03 04:28:44;;;;;;;32.50;19.20;;;4.70;42.30;;;;;;5012495;28;20209;-56
2023/03/03 04:31:10;;;;;;;27.17;16.73;;;4.80;42.20;;;;;;5012368;28;20414;-53
2023/03/03 04:33:36;;;;;;;33.77;19.90;;;4.80;42.10;;;;;;5012362;28;20475;-56
2023/03/03 04:36:03;;;;;;;32.03;18.37;;;4.80;42.30;;;;;;5012499;28;20460;-56
2023/03/03 04:38:29;;;;;;;32.85;19.40;;;4.80;42.20;;;;;;5012306;28;20401;-53
2023/03/03 04:40:55;;;;;;;37.80;20.17;;;4.80;42.50;;;;;;5012357;28;20195;-53
2023/03/03 04:43:21;;;;;;;35.55;18.90;;;4.70;42.50;;;;;;5012329;28;20205;-56
2023/03/03 04:45:47;;;;;;;37.17;19.23;;;4.70;42.30;;;;;;5012309;28;20213;-53
2023/03/03 04:48:13;;;;;;;32.87;18.30;;;4.80;42.50;;;;;;5012194;28;20496;-55
2023/03/03 04:50:39;;;;;;;40.23;19.50;;;4.80;42.30;;;;;;5012015;28;20532;-51
2023/03/03 04:53:04;;;;;;;31.40;19.00;;;4.80;42.20;;;;;;5012476;28;20409;-53
2023/03/03 04:55:30;;;;;;;40.60;17.53;;;4.90;42.20;;;;;;5012045;28;20286;-54
2023/03/03 04:57:56;;;;;;;43.63;21.80;;;4.90;42.20;;;;;;5011993;28;20539;-52
2023/03/03 05:00:22;;;;;;;39.13;19.10;;;4.90;42.20;;;;;;5012391;28;20462;-55
2023/03/03 05:02:48;;;;;;;29.40;17.43;;;4.90;41.90;;;;;;5012947;28;20432;-53
2023/03/03 05:05:14;;;;;;;32.43;18.27;;;4.90;42.10;;;;;;5016053;28;20406;-52
2023/03/03 05:07:40;;;;;;;35.65;18.08;;;4.90;42.10;;;;;;5015975;28;20442;-54
2023/03/03 05:10:07;;;;;;;30.85;17.30;;;4.90;42.10;;;;;;5016133;28;20209;-56
2023/03/03 05:12:33;;;;;;;36.92;18.23;;;4.90;42.60;;;;;;5015992;28;20178;-54
2023/03/03 05:14:58;;;;;;;27.70;16.63;;;5.00;41.90;;;;;;5015787;28;20206;-53
2023/03/03 05:17:24;;;;;;;40.20;20.20;;;4.90;42.20;;;;;;5016081;28;20171;-54
2023/03/03 05:19:50;;;;;;;30.33;17.27;;;5.00;42.80;;;;;;5015571;28;20210;-51
2023/03/03 05:22:16;;;;;;;35.53;17.60;;;5.00;42.10;;;;;;5016008;28;20858;-55
2023/03/03 05:24:42;;;;;;;32.03;16.33;;;5.00;42.50;;;;;;5015750;28;20167;-54
2023/03/03 05:27:08;;;;;;;35.88;16.65;;;4.90;42.60;;;;;;5016022;28;20171;-52
2023/03/03 05:29:34;;;;;;;33.63;17.88;;;4.90;42.60;;;;;;5015250;28;20687;-56
2023/03/03 05:32:00;;;;;;;30.73;16.83;;;4.90;42.70;;;;;;5015772;28;20232;-55
2023/03/03 05:34:26;;;;;;;36.40;18.63;;;4.90;42.80;;;;;;5015463;28;20202;-52
2023/03/03 05:36:52;;;;;;;36.17;17.33;;;4.90;42.70;;;;;;5015581;28;20492;-54
2023/03/03 05:39:17;;;;;;;41.40;18.73;;;4.90;42.60;;;;;;5015516;28;20277;-54
2023/03/03 05:41:43;;;;;;;36.27;18.30;;;5.00;42.30;;;;;;5015465;28;20277;-54
2023/03/03 05:44:09;;;;;;;41.63;18.93;;;5.10;42.40;;;;;;5015377;28;20171;-55
2023/03/03 05:46:35;;;;;;;32.08;17.73;;;5.10;42.40;;;;;;5015208;28;20178;-53
2023/03/03 05:49:01;;;;;;;35.47;18.37;;;5.10;42.30;;;;;;5014912;28;20248;-57
2023/03/03 05:51:27;;;;;;;34.63;18.52;;;5.20;42.30;;;;;;5015229;28;20286;-54
2023/03/03 05:53:52;;;;;;;37.50;18.23;;;5.10;42.10;;;;;;5015320;28;20265;-58
2023/03/03 05:56:18;;;;;;;40.23;20.10;;;5.10;42.30;;;;;;5015028;28;20203;-57
2023/03/03 05:58:44;;;;;;;42.13;21.97;;;5.10;42.50;;;;;;5015072;28;20228;-52
2023/03/03 06:01:10;;;;;;;39.57;18.23;;;5.00;42.60;;;;;;5015287;28;20189;-51
2023/03/03 06:03:36;;;;;;;34.75;18.70;;;5.00;42.60;;;;;;5015291;28;20174;-57
2023/03/03 06:06:02;;;;;;;39.00;17.57;;;5.10;42.70;;;;;;5014987;28;20593;-56
2023/03/03 06:08:28;;;;;;;38.00;22.10;;;5.10;42.60;;;;;;5015075;28;20187;-52
2023/03/03 06:10:54;;;;;;;38.35;19.73;;;5.10;43.00;;;;;;5014831;28;20433;-52
2023/03/03 06:13:19;;;;;;;40.67;22.23;;;5.00;42.70;;;;;;5014587;28;20179;-57
2023/03/03 06:15:45;;;;;;;39.13;18.07;;;5.00;43.20;;;;;;5014749;28;20286;-53
2023/03/03 06:18:11;;;;;;;39.83;18.90;;;4.90;43.50;;;;;;5014529;28;20611;-55
2023/03/03 06:20:37;;;;;;;37.27;19.60;;;4.90;44.20;;;;;;5014664;28;20306;-56
2023/03/03 06:23:04;;;;;;;44.45;19.20;;;4.80;43.90;;;;;;5014911;28;20214;-52
2023/03/03 06:25:30;;;;;;;36.53;17.77;;;4.80;43.80;;;;;;5014638;28;20186;-50
2023/03/03 06:27:55;;;;;;;37.43;19.30;;;4.80;44.20;;;;;;5014292;28;20531;-57
2023/03/03 06:30:21;;;;;;;39.67;20.07;;;4.80;43.80;;;;;;5014706;28;20753;-55
2023/03/03 06:32:47;;;;;;;37.93;18.60;;;4.90;44.30;;;;;;5014605;28;20813;-52
2023/03/03 06:35:13;;;;;;;35.97;19.60;;;4.90;43.90;;;;;;5014608;28;20249;-55
2023/03/03 06:37:38;;;;;;;41.13;21.40;;;4.90;43.90;;;;;;5014282;28;20762;-53
2023/03/03 06:40:05;;;;;;;44.43;20.53;;;4.90;43.70;;;;;;5014050;28;20536;-58
2023/03/03 06:42:31;;;;;;;41.05;19.38;;;5.00;43.60;;;;;;5014192;28;20179;-57
2023/03/03 06:44:57;;;;;;;47.80;22.93;;;5.00;43.40;;;;;;5014204;28;20194;-53
2023/03/03 06:47:22;;;;;;;42.87;20.80;;;5.10;43.60;;;;;;5014325;28;20209;-53
2023/03/03 06:49:48;;;;;;;45.40;18.73;;;5.10;43.30;;;;;;5014049;28;20202;-55
2023/03/03 06:52:19;;;;;;;42.20;19.40;;;5.10;43.40;;;;;;5013991;28;20247;-51
2023/03/03 06:54:45;;;;;;;37.63;17.67;;;5.20;43.40;;;;;;5013971;28;20598;-54
2023/03/03 06:57:26;;;;;;;43.00;17.83;;;5.10;43.60;;;;;;5014167;28;20178;-55
2023/03/03 06:59:54;;;;;;;33.13;17.75;;;5.10;43.50;;;;;;5013672;28;20563;-52
2023/03/03 07:02:21;;;;;;;29.70;15.70;;;5.10;43.40;;;;;;5013850;28;20213;-52
2023/03/03 07:04:47;;;;;;;34.25;19.85;;;5.10;43.40;;;;;;5013901;28;20186;-54
2023/03/03 07:07:17;;;;;;;32.38;16.13;;;5.20;43.40;;;;;;5014115;28;20179;-54
2023/03/03 07:09:44;;;;;;;33.33;15.63;;;5.20;43.30;;;;;;5013401;28;20194;-51
2023/03/03 07:12:15;;;;;;;33.83;17.08;;;5.20;43.30;;;;;;5013912;28;20601;-52
2023/03/03 07:14:45;;;;;;;37.70;17.95;;;5.20;44.20;;;;;;5013953;28;20261;-57
2023/03/03 07:17:16;;;;;;;30.30;17.83;;;5.20;43.60;;;;;;5013488;28;20612;-53
2023/03/03 07:19:42;;;;;;;33.25;16.70;;;5.20;43.70;;;;;;5013444;28;20206;-53
2023/03/03 07:22:21;;;;;;;33.38;18.45;;;5.20;43.40;;;;;;5013510;28;20170;-56
2023/03/03 07:24:52;;;;;;;39.13;15.73;;;5.20;43.50;;;;;;5013626;28;20181;-52
2023/03/03 07:27:18;;;;;;;30.33;17.13;;;5.20;43.50;;;;;;5013288;28;20253;-54
2023/03/03 07:29:47;;;;;;;34.40;15.50;;;5.20;43.70;;;;;;5013170;28;20747;-53
2023/03/03 07:32:34;;;;;;;35.78;17.58;;;5.30;43.80;;;;;;5013576;28;20275;-51
2023/03/03 07:35:01;;;;;;;32.35;17.23;;;5.30;43.70;;;;;;5013348;28;20210;-58
2023/03/03 07:37:37;;;;;;;29.65;15.20;;;5.20;43.40;;;;;;5013580;28;20175;-56
2023/03/03 07:40:28;;;;;;;33.97;17.17;;;5.20;43.40;;;;;;5013101;28;20248;-52
2023/03/03 07:42:53;;;;;;;31.27;15.90;;;5.30;43.80;;;;;;5013182;28;20218;-54
2023/03/03 07:45:26;;;;;;;31.30;16.33;;;5.20;43.60;;;;;;5013355;28;20186;-54
2023/03/03 07:48:16;;;;;;;31.63;17.02;;;5.20;43.50;;;;;;5013021;28;20189;-55
2023/03/03 07:50:43;;;;;;;29.73;15.15;;;5.30;43.80;;;;;;5004788;28;20301;-53
2023/03/03 07:53:23;;;;;;;25.65;15.38;;;5.30;43.80;;;;;;5013261;28;20225;-55
2023/03/03 07:55:49;;;;;;;30.92;14.52;;;5.30;43.70;;;;;;5012987;28;20225;-58
2023/03/03 07:58:19;;;;;;;23.63;14.33;;;5.30;43.80;;;;;;5013103;28;20178;-53
2023/03/03 08:01:03;;;;;;;21.10;12.73;;;5.30;43.70;;;;;;5012894;28;20183;-55
2023/03/03 08:03:34;;;;;;;26.10;13.77;;;5.30;43.70;;;;;;5012881;28;20163;-54
2023/03/03 08:06:23;;;;;;;30.63;15.05;;;5.30;43.70;;;;;;5012793;28;20630;-52
2023/03/03 08:08:48;;;;;;;25.67;14.77;;;5.30;43.80;;;;;;5012617;28;20262;-57
2023/03/03 08:11:14;;;;;;;24.83;14.83;;;5.30;43.70;;;;;;5012892;28;20265;-52
2023/03/03 08:13:42;;;;;;;23.83;13.50;;;5.40;43.60;;;;;;5012712;28;20574;-52
2023/03/03 08:16:08;;;;;;;27.27;15.13;;;5.40;43.60;;;;;;5012589;28;20228;-55
2023/03/03 08:18:37;;;;;;;26.73;13.80;;;5.40;43.70;;;;;;5012333;28;20643;-55
2023/03/03 08:21:23;;;;;;;22.38;11.90;;;5.40;43.60;;;;;;5012849;28;20533;-52
2023/03/03 08:23:52;;;;;;;23.65;13.30;;;5.50;43.70;;;;;;5012489;28;20179;-53
2023/03/03 08:26:18;;;;;;;19.50;11.57;;;5.50;43.70;;;;;;5012578;28;20220;-57
2023/03/03 08:28:45;;;;;;;26.20;12.15;;;5.40;43.90;;;;;;5012067;28;20597;-58
2023/03/03 08:31:11;;;;;;;22.92;13.32;;;5.40;43.80;;;;;;5012340;28;20236;-51
2023/03/03 08:33:37;;;;;;;22.75;13.07;;;5.40;43.90;;;;;;5012662;28;20178;-52
2023/03/03 08:36:04;;;;;;;21.27;12.63;;;5.30;43.80;;;;;;5012372;28;20613;-56
2023/03/03 08:38:30;;;;;;;17.48;11.73;;;5.40;43.80;;;;;;5012156;28;20171;-53
2023/03/03 08:40:56;;;;;;;20.00;12.47;;;5.40;43.80;;;;;;5012339;28;20555;-53
2023/03/03 08:43:23;;;;;;;24.47;12.23;;;5.50;43.90;;;;;;5012238;28;20170;-55
2023/03/03 08:45:51;;;;;;;20.65;12.15;;;5.50;43.80;;;;;;5012533;28;20413;-53
2023/03/03 08:48:17;;;;;;;24.00;12.55;;;5.50;43.80;;;;;;5011987;28;20193;-52
2023/03/03 08:50:43;;;;;;;17.02;11.50;;;5.60;43.70;;;;;;5012074;28;20217;-55
2023/03/03 08:53:10;;;;;;;19.25;11.98;;;5.60;43.80;;;;;;5012145;28;20174;-57
2023/03/03 08:55:36;;;;;;;23.38;12.43;;;5.60;43.70;;;;;;5012073;28;20203;-51
2023/03/03 08:58:02;;;;;;;19.60;13.23;;;5.70;43.70;;;;;;5011856;28;20177;-52
2023/03/03 09:00:28;;;;;;;23.87;12.43;;;5.60;43.70;;;;;;5012264;28;20425;-55
2023/03/03 09:02:54;;;;;;;25.30;12.15;;;5.60;43.80;;;;;;5012246;28;20638;-52
2023/03/03 09:05:22;;;;;;;16.17;11.52;;;5.60;44.00;;;;;;5012098;28;20232;-54
2023/03/03 09:07:50;;;;;;;19.25;10.48;;;5.60;43.80;;;;;;5011842;28;20174;-56
2023/03/03 09:10:26;;;;;;;20.75;11.15;;;5.60;44.10;;;;;;5012047;28;20210;-52
2023/03/03 09:12:52;;;;;;;17.45;10.90;;;5.60;43.80;;;;;;5011976;28;20605;-55
2023/03/03 09:15:29;;;;;;;20.50;10.52;;;5.60;43.80;;;;;;5012179;28;20568;-53
2023/03/03 09:18:21;;;;;;;17.45;10.57;;;5.70;43.90;;;;;;5011906;28;20550;-56
2023/03/03 09:20:50;;;;;;;18.30;10.43;;;5.70;43.90;;;;;;5005096;28;20206;-54
2023/03/03 09:23:37;;;;;;;15.57;9.88;;;5.70;43.80;;;;;;5011898;28;20186;-52
2023/03/03 09:26:29;;;;;;;14.68;9.10;;;5.80;43.70;;;;;;5012232;28;20167;-56
2023/03/03 09:29:15;;;;;;;13.25;7.93;;;5.80;43.60;;;;;;5011808;28;20183;-56
2023/03/03 09:31:48;;;;;;;13.48;8.80;;;5.70;43.80;;;;;;5011724;28;20201;-55
2023/03/03 09:34:28;;;;;;;15.07;9.10;;;5.70;43.80;;;;;;5011749;28;20178;-52
2023/03/03 09:36:55;;;;;;;14.93;7.88;;;5.80;43.60;;;;;;5011851;28;20209;-54
2023/03/03 09:39:26;;;;;;;15.45;10.18;;;5.80;43.50;;;;;;5011785;28;20237;-54
2023/03/03 09:42:29;;;;;;;14.18;9.68;;;5.80;43.50;;;;;;5011640;28;20651;-56
2023/03/03 09:45:19;;;;;;;17.58;8.27;;;5.80;43.30;;;;;;5011758;28;20194;-53
2023/03/03 09:48:06;;;;;;;12.55;7.93;;;5.70;43.50;;;;;;5011603;28;20218;-52
2023/03/03 09:51:22;;;;;;;11.13;6.53;;;5.70;43.60;;;;;;5014891;28;20277;-51
2023/03/03 09:54:12;;;;;;;14.00;8.02;;;5.70;43.50;;;;;;4997978;28;20655;-51
2023/03/03 09:56:59;;;;;;;9.55;6.07;;;5.70;43.50;;;;;;5015319;28;20178;-52
2023/03/03 09:59:35;;;;;;;11.18;5.78;;;5.60;43.40;;;;;;5015049;28;20222;-55
2023/03/03 10:02:53;;;;;;;12.63;6.72;;;5.50;43.70;;;;;;5015073;28;20201;-51
2023/03/03 10:05:27;;;;;;;13.65;8.40;;;5.50;43.70;;;;;;4983596;28;20557;-53
2023/03/03 10:08:13;;;;;;;10.18;6.78;;;5.40;44.10;;;;;;5015000;28;20186;-54
2023/03/03 10:10:48;;;;;;;12.52;7.10;;;5.30;43.90;;;;;;5004423;28;20211;-53
2023/03/03 10:13:40;;;;;;;11.20;7.45;;;5.40;44.10;;;;;;5014983;28;20197;-53
2023/03/03 10:16:21;;;;;;;11.80;6.45;;;5.50;44.10;;;;;;5009149;28;20219;-54
2023/03/03 10:19:38;;;;;;;10.13;5.45;;;5.60;43.80;;;;;;5014891;28;20163;-52
2023/03/03 10:22:33;;;;;;;10.23;6.75;;;5.60;43.60;;;;;;4954092;29;20172;-55
2023/03/03 10:25:17;;;;;;;12.88;7.82;;;5.70;43.70;;;;;;5014663;28;20558;-56
2023/03/03 10:28:14;;;;;;;12.93;6.55;;;5.70;43.70;;;;;;5014310;28;20257;-51
2023/03/03 10:31:18;;;;;;;10.95;6.60;;;5.70;43.70;;;;;;4989905;28;20203;-52
2023/03/03 10:33:53;;;;;;;9.80;6.75;;;5.70;43.50;;;;;;5014482;28;20206;-52
2023/03/03 10:36:49;;;;;;;9.70;5.97;;;5.70;43.60;;;;;;5014683;28;20542;-53
2023/03/03 10:39:41;;;;;;;11.63;7.05;;;5.70;43.60;;;;;;5014406;28;20281;-56
2023/03/03 10:42:28;;;;;;;10.38;5.75;;;5.80;43.50;;;;;;5014284;28;20162;-50
2023/03/03 10:45:27;;;;;;;11.52;6.35;;;5.80;43.40;;;;;;5014613;28;20167;-55
2023/03/03 10:48:14;;;;;;;7.82;5.60;;;5.90;43.70;;;;;;5014310;28;20514;-55
2023/03/03 10:50:53;;;;;;;7.95;5.55;;;5.80;43.20;;;;;;5014071;28;20203;-54
2023/03/03 10:53:33;;;;;;;10.38;5.57;;;5.90;43.50;;;;;;5014300;28;20238;-52
2023/03/03 10:56:11;;;;;;;11.65;6.40;;;5.80;43.20;;;;;;5014215;28;20191;-53
2023/03/03 10:58:45;;;;;;;9.68;6.40;;;5.80;43.30;;;;;;5013843;28;20190;-54
2023/03/03 11:01:19;;;;;;;9.02;5.82;;;5.80;43.40;;;;;;5012922;28;20182;-52
2023/03/03 11:04:09;;;;;;;6.55;5.05;;;5.90;43.40;;;;;;5013961;28;20170;-51
2023/03/03 11:07:13;;;;;;;8.00;4.75;;;5.90;43.00;;;;;;5013879;28;20159;-52
2023/03/03 11:10:38;;;;;;;13.20;5.95;;;5.90;43.10;;;;;;4990744;28;20336;-55
2023/03/03 11:13:23;;;;;;;10.25;5.70;;;6.00;43.20;;;;;;4933954;29;20212;-52
2023/03/03 11:16:27;;;;;;;11.48;7.38;;;6.00;42.90;;;;;;4933840;29;20197;-55
2023/03/03 11:19:08;;;;;;;12.40;7.07;;;5.90;42.80;;;;;;4915884;29;20185;-53
2023/03/03 11:22:15;;;;;;;8.00;5.65;;;5.90;43.00;;;;;;4933852;29;20590;-50
2023/03/03 11:25:17;;;;;;;10.07;6.60;;;5.80;42.60;;;;;;4933437;29;20287;-56
2023/03/03 11:28:04;;;;;;;21.83;6.97;;;5.90;42.90;;;;;;4933578;29;20185;-55
2023/03/03 11:30:35;;;;;;;9.77;6.20;;;5.90;42.80;;;;;;4933593;29;20201;-56
2023/03/03 11:33:04;;;;;;;9.82;7.05;;;5.90;42.90;;;;;;4933612;29;20384;-51
2023/03/03 11:35:37;;;;;;;14.43;7.35;;;5.90;42.90;;;;;;4933509;29;20259;-56
2023/03/03 11:38:33;;;;;;;13.65;7.82;;;6.00;42.80;;;;;;4933286;29;20173;-55
2023/03/03 11:41:19;;;;;;;11.75;6.63;;;6.00;42.90;;;;;;4933397;29;20197;-57
2023/03/03 11:43:54;;;;;;;14.20;6.50;;;5.90;42.90;;;;;;4970298;28;20274;-52
2023/03/03 11:46:29;;;;;;;10.93;5.45;;;5.80;43.10;;;;;;5013495;28;20525;-54
2023/03/03 11:49:21;;;;;;;10.05;6.00;;;5.80;43.00;;;;;;5013052;28;20198;-54
2023/03/03 11:52:00;;;;;;;9.40;6.60;;;5.80;43.10;;;;;;5012914;28;20685;-54
2023/03/03 11:54:33;;;;;;;11.20;7.32;;;5.90;43.10;;;;;;5012887;28;20646;-52
2023/03/03 11:57:31;;;;;;;18.90;7.25;;;5.90;43.00;;;;;;5013105;28;20216;-54
2023/03/03 12:00:18;;;;;;;9.20;5.85;;;5.90;43.00;;;;;;5012704;28;20196;-52
2023/03/03 12:02:53;;;;;;;15.35;6.82;;;5.90;43.20;;;;;;5012957;28;20197;-54
2023/03/03 12:05:37;;;;;;;14.65;6.78;;;5.90;43.10;;;;;;5012830;28;20170;-55
2023/03/03 12:08:29;;;;;;;11.65;6.82;;;6.00;43.20;;;;;;5012699;28;20171;-51
2023/03/03 12:11:04;;;;;;;11.13;5.30;;;6.00;42.80;;;;;;5012371;28;20199;-53
2023/03/03 12:14:05;;;;;;;11.10;5.85;;;6.10;42.80;;;;;;5012413;28;20170;-51
2023/03/03 12:16:31;;;;;;;9.85;5.32;;;6.00;42.50;;;;;;5010528;28;20214;-54
2023/03/03 12:19:02;;;;;;;12.13;6.80;;;6.00;42.40;;;;;;5012327;28;20173;-55
2023/03/03 12:22:01;;;;;;;11.60;4.68;;;6.10;42.50;;;;;;5011366;28;20221;-53
2023/03/03 12:24:27;;;;;;;7.38;4.43;;;6.10;41.80;;;;;;5012543;28;20171;-57
2023/03/03 12:26:59;;;;;;;17.73;6.53;;;6.00;41.90;;;;;;5012503;28;20174;-52
2023/03/03 12:29:51;;;;;;;7.75;5.20;;;6.00;42.60;;;;;;5012203;28;20256;-54
2023/03/03 12:33:02;;;;;;;7.30;4.85;;;5.90;42.40;;;;;;5012526;28;20183;-52
2023/03/03 12:35:48;;;;;;;9.40;5.63;;;6.00;42.50;;;;;;5012352;28;20770;-52
2023/03/03 12:38:23;;;;;;;10.30;4.35;;;6.00;42.10;;;;;;5012455;28;20186;-55
2023/03/03 12:41:21;;;;;;;7.65;5.18;;;5.90;41.90;;;;;;5012286;28;20904;-51
2023/03/03 12:43:53;;;;;;;13.13;5.40;;;6.00;42.30;;;;;;5006997;28;20269;-55
2023/03/03 12:46:37;;;;;;;15.20;5.57;;;6.10;42.40;;;;;;5012609;28;20169;-53
2023/03/03 12:49:04;;;;;;;8.00;5.35;;;6.20;42.30;;;;;;5012227;28;20202;-53
2023/03/03 12:51:41;;;;;;;7.13;4.70;;;6.30;42.20;;;;;;5012142;28;20197;-53
2023/03/03 12:54:13;;;;;;;5.80;4.07;;;6.30;41.80;;;;;;5012152;28;20182;-51
2023/03/03 12:56:51;;;;;;;11.63;4.50;;;6.30;41.00;;;;;;5012423;28;20221;-54
2023/03/03 12:59:25;;;;;;;10.77;5.78;;;6.40;40.80;;;;;;5011888;28;20672;-53
2023/03/03 13:02:35;;;;;;;11.88;6.45;;;6.40;41.10;;;;;;5012038;28;20526;-52
2023/03/03 13:05:13;;;;;;;9.65;5.35;;;6.40;41.30;;;;;;5012016;28;20550;-53
2023/03/03 13:08:05;;;;;;;9.55;5.53;;;6.50;41.30;;;;;;5011927;28;20178;-57
2023/03/03 13:10:54;;;;;;;8.25;5.32;;;6.50;40.90;;;;;;5012087;28;20194;-55
2023/03/03 13:13:40;;;;;;;11.73;5.40;;;6.50;41.00;;;;;;5012085;28;20527;-57